Time;durP1;ratioP1;P1;durP2;ratioP2;P2;SDS_P1;SDS_P2;PMS_P1;PMS_P2;Temp;Humidity;BMP_temperature;BMP_pressure;BME280_temperature;BME280_humidity;BME280_pressure;Samples;Min_cycle;Max_cycle;Signal;HPM_P1;HPM_P2
2024/01/28 00:00:30;;;;;;;2.83;1.60;;;-1.10;1.00;;;;;;5094198;28;20204;-81
2024/01/28 00:02:58;;;;;;;4.40;2.10;;;-1.00;1.00;;;;;;5096294;28;20648;-82
2024/01/28 00:05:23;;;;;;;6.93;2.00;;;-0.90;1.00;;;;;;5095015;28;20611;-81
2024/01/28 00:07:49;;;;;;;3.43;1.70;;;-1.00;1.00;;;;;;5094626;28;20207;-82
2024/01/28 00:10:14;;;;;;;5.20;2.00;;;-1.10;1.00;;;;;;5095385;28;20626;-81
2024/01/28 00:12:40;;;;;;;6.83;2.03;;;-1.00;1.00;;;;;;5095920;28;20627;-82
2024/01/28 00:15:06;;;;;;;4.40;1.80;;;-0.90;1.00;;;;;;5095744;28;20203;-81
2024/01/28 00:17:32;;;;;;;5.27;1.90;;;-0.90;99.90;;;;;;5095943;28;20207;-81
2024/01/28 00:19:57;;;;;;;5.37;2.40;;;-1.00;99.90;;;;;;5094124;28;20672;-81
2024/01/28 00:22:23;;;;;;;5.37;2.47;;;-1.00;99.90;;;;;;5094176;28;20164;-81
2024/01/28 00:24:50;;;;;;;3.87;2.67;;;-1.10;99.90;;;;;;5094355;28;20650;-83
2024/01/28 00:27:15;;;;;;;6.83;3.20;;;-1.00;1.00;;;;;;5095769;28;20192;-81
2024/01/28 00:29:41;;;;;;;7.27;3.33;;;-1.10;1.00;;;;;;5094401;28;20182;-82
2024/01/28 00:32:06;;;;;;;11.63;4.03;;;-1.10;1.00;;;;;;5093847;28;20182;-81
2024/01/28 00:34:32;;;;;;;7.20;4.20;;;-1.20;1.00;;;;;;5094302;28;20279;-81
2024/01/28 00:36:58;;;;;;;12.30;4.23;;;-1.20;1.00;;;;;;5094193;28;20608;-82
2024/01/28 00:39:24;;;;;;;7.73;3.73;;;-1.20;1.00;;;;;;5094030;28;20204;-81
2024/01/28 00:41:50;;;;;;;5.50;3.07;;;-1.20;1.00;;;;;;5093642;28;20555;-82
2024/01/28 00:44:16;;;;;;;5.10;2.53;;;-1.10;1.00;;;;;;5095249;28;20699;-81
2024/01/28 00:46:41;;;;;;;6.57;3.23;;;-1.30;1.00;;;;;;5095292;28;20196;-83
2024/01/28 00:49:07;;;;;;;5.53;3.33;;;-1.40;1.00;;;;;;5095162;28;20180;-81
2024/01/28 00:51:33;;;;;;;4.30;2.37;;;-1.40;1.00;;;;;;5093327;28;20184;-81
2024/01/28 00:53:59;;;;;;;3.60;2.20;;;-1.50;1.00;;;;;;5093885;28;20184;-81
2024/01/28 00:56:25;;;;;;;6.37;2.57;;;-1.40;1.00;;;;;;5095042;28;20200;-82
2024/01/28 00:58:50;;;;;;;5.77;2.70;;;-1.50;1.00;;;;;;5093558;28;20196;-81
2024/01/28 01:01:18;;;;;;;5.13;2.07;;;-1.40;25.50;;;;;;5093127;28;20172;-81
2024/01/28 01:03:43;;;;;;;6.77;2.87;;;-1.40;1.00;;;;;;5094959;28;20616;-81
2024/01/28 01:06:09;;;;;;;6.90;2.57;;;-1.50;1.00;;;;;;5093306;28;20326;-81
2024/01/28 01:08:34;;;;;;;6.00;2.80;;;-1.50;1.00;;;;;;5093471;28;20640;-81
2024/01/28 01:11:03;;;;;;;6.40;2.27;;;-1.50;1.00;;;;;;5092820;28;20257;-83
2024/01/28 01:13:31;;;;;;;4.80;2.80;;;-1.40;1.00;;;;;;5093291;28;20176;-82
2024/01/28 01:15:56;;;;;;;4.17;2.30;;;-1.50;1.00;;;;;;5093145;28;20175;-82
2024/01/28 01:18:23;;;;;;;4.60;2.07;;;-1.50;1.00;;;;;;5094546;28;20168;-81
2024/01/28 01:20:49;;;;;;;4.27;2.30;;;-1.40;1.00;;;;;;5094113;28;20195;-81
2024/01/28 01:23:15;;;;;;;6.83;2.30;;;-1.40;99.90;;;;;;5094477;28;20567;-81
2024/01/28 01:25:40;;;;;;;4.40;2.10;;;-1.40;1.00;;;;;;5093275;28;20173;-84
2024/01/28 01:28:06;;;;;;;3.37;2.60;;;-1.40;93.70;;;;;;5094188;28;20196;-81
2024/01/28 01:30:32;;;;;;;9.37;2.77;;;-1.50;1.00;;;;;;5092568;28;20180;-81
2024/01/28 01:32:57;;;;;;;4.90;2.50;;;-1.40;1.00;;;;;;5093249;28;20176;-81
2024/01/28 01:35:23;;;;;;;4.20;2.30;;;-1.50;99.90;;;;;;5092967;28;20659;-81
2024/01/28 01:37:49;;;;;;;3.37;2.10;;;-1.50;1.00;;;;;;5094415;28;20199;-82
2024/01/28 01:40:14;;;;;;;4.63;2.13;;;-1.60;99.90;;;;;;5092143;28;20647;-78
2024/01/28 01:42:42;;;;;;;5.57;2.07;;;-1.60;99.90;;;;;;5091172;28;20172;-81
2024/01/28 01:45:08;;;;;;;3.43;1.87;;;-1.70;99.90;;;;;;5093300;28;20168;-81
2024/01/28 01:47:33;;;;;;;3.83;2.00;;;-1.70;99.90;;;;;;5094593;28;20212;-80
2024/01/28 01:49:59;;;;;;;4.40;2.23;;;-1.80;99.90;;;;;;5092675;28;20206;-81
2024/01/28 01:52:25;;;;;;;3.03;2.10;;;-1.80;1.00;;;;;;5090602;28;20176;-81
2024/01/28 01:54:53;;;;;;;3.93;2.00;;;-1.80;1.00;;;;;;5072627;28;20180;-81
2024/01/28 01:57:20;;;;;;;4.77;2.37;;;-1.70;1.00;;;;;;5074010;28;20197;-81
2024/01/28 01:59:46;;;;;;;4.50;1.97;;;-1.70;99.90;;;;;;5072629;28;20243;-81
2024/01/28 02:02:12;;;;;;;3.70;1.70;;;-1.70;1.00;;;;;;5072549;28;20177;-81
2024/01/28 02:04:38;;;;;;;4.30;2.30;;;-1.60;99.90;;;;;;5074098;28;20547;-81
2024/01/28 02:07:04;;;;;;;3.67;2.17;;;-1.70;99.90;;;;;;5073429;28;20291;-81
2024/01/28 02:09:31;;;;;;;4.43;2.00;;;-1.70;1.00;;;;;;5073682;28;20212;-81
2024/01/28 02:11:56;;;;;;;4.43;1.90;;;-1.70;99.90;;;;;;5073340;28;20181;-81
2024/01/28 02:14:23;;;;;;;3.77;1.97;;;-1.70;99.90;;;;;;5072796;28;20198;-81
2024/01/28 02:16:49;;;;;;;3.60;1.97;;;-1.80;99.90;;;;;;5073777;28;20220;-81
2024/01/28 02:19:15;;;;;;;5.13;2.20;;;-1.70;1.00;;;;;;5073690;28;20250;-81
2024/01/28 02:21:41;;;;;;;5.13;2.07;;;-1.70;99.90;;;;;;5077590;28;20180;-81
2024/01/28 02:24:07;;;;;;;5.70;2.50;;;-1.70;99.90;;;;;;5079669;28;20194;-81
2024/01/28 02:26:32;;;;;;;5.77;2.37;;;-1.70;26.50;;;;;;5093434;28;20192;-81
2024/01/28 02:28:58;;;;;;;3.57;2.20;;;-1.70;1.00;;;;;;5093769;28;20178;-80
2024/01/28 02:31:24;;;;;;;2.77;1.93;;;-1.80;99.90;;;;;;5093238;28;20176;-81
2024/01/28 02:33:49;;;;;;;4.70;2.20;;;-2.00;1.00;;;;;;5092386;28;20188;-81
2024/01/28 02:36:15;;;;;;;4.37;2.03;;;-1.90;1.00;;;;;;5093184;28;20196;-81
2024/01/28 02:38:41;;;;;;;5.63;2.10;;;-1.90;99.90;;;;;;5093523;28;20569;-80
2024/01/28 02:41:06;;;;;;;3.87;2.43;;;-1.90;1.00;;;;;;5091466;28;20555;-81
2024/01/28 02:43:32;;;;;;;2.80;1.93;;;-1.90;1.00;;;;;;5093434;28;20178;-81
2024/01/28 02:45:57;;;;;;;5.30;2.10;;;-1.80;1.00;;;;;;5091821;28;20172;-81
2024/01/28 02:48:23;;;;;;;3.87;2.10;;;-1.90;1.00;;;;;;5093032;28;20237;-81
2024/01/28 02:50:49;;;;;;;4.63;1.97;;;-2.00;1.00;;;;;;5092746;28;20176;-81
2024/01/28 02:53:14;;;;;;;3.87;1.60;;;-2.00;1.00;;;;;;5091928;28;20179;-81
2024/01/28 02:55:40;;;;;;;2.47;1.53;;;-2.00;1.00;;;;;;5093157;28;20175;-80
2024/01/28 02:58:06;;;;;;;2.80;1.50;;;-2.00;1.00;;;;;;5091708;28;20241;-81
2024/01/28 03:00:31;;;;;;;2.50;1.70;;;-2.00;1.00;;;;;;5092802;28;20210;-81
2024/01/28 03:02:57;;;;;;;1.97;1.50;;;-2.00;1.00;;;;;;5091693;28;20180;-81
2024/01/28 03:05:22;;;;;;;2.20;1.60;;;-2.00;99.90;;;;;;5091841;28;20175;-81
2024/01/28 03:07:49;;;;;;;2.30;1.37;;;-2.00;99.90;;;;;;5091988;28;20261;-81
2024/01/28 03:10:14;;;;;;;1.90;1.50;;;-2.00;1.00;;;;;;5091489;28;20199;-78
2024/01/28 03:12:40;;;;;;;4.47;1.60;;;-2.00;1.00;;;;;;5091630;28;20176;-80
2024/01/28 03:15:06;;;;;;;5.43;1.70;;;-1.90;99.90;;;;;;5089023;28;20195;-81
2024/01/28 03:17:32;;;;;;;4.53;1.60;;;-2.00;1.00;;;;;;5086465;28;20199;-81
2024/01/28 03:19:58;;;;;;;1.83;1.40;;;-2.00;1.00;;;;;;5092205;28;20200;-81
2024/01/28 03:22:23;;;;;;;2.90;1.60;;;-2.10;1.00;;;;;;5090493;28;20179;-81
2024/01/28 03:24:49;;;;;;;4.00;1.53;;;-2.20;1.00;;;;;;5091261;28;20313;-81
2024/01/28 03:27:15;;;;;;;1.53;1.40;;;-2.20;1.00;;;;;;5092523;28;20221;-81
2024/01/28 03:29:41;;;;;;;3.63;1.70;;;-2.20;1.00;;;;;;5091150;28;20176;-81
2024/01/28 03:32:06;;;;;;;5.07;1.60;;;-2.30;1.00;;;;;;5090594;28;20176;-81
2024/01/28 03:34:32;;;;;;;1.47;1.20;;;-2.30;1.00;;;;;;5090870;28;20221;-81
2024/01/28 03:36:57;;;;;;;3.83;1.63;;;-2.30;1.00;;;;;;5092406;28;20203;-81
2024/01/28 03:39:23;;;;;;;2.53;1.47;;;-2.30;1.00;;;;;;5091122;28;20207;-81
2024/01/28 03:41:48;;;;;;;3.00;1.33;;;-2.40;1.00;;;;;;5091781;28;20178;-82
2024/01/28 03:44:19;;;;;;;1.73;1.23;;;-2.40;1.00;;;;;;5090854;28;20174;-81
2024/01/28 03:46:45;;;;;;;4.07;1.50;;;-2.40;1.00;;;;;;5092213;28;20771;-81
2024/01/28 03:49:10;;;;;;;4.37;1.43;;;-2.30;1.00;;;;;;5091191;28;20214;-81
2024/01/28 03:51:36;;;;;;;3.70;1.20;;;-2.40;1.00;;;;;;5090262;28;20294;-81
2024/01/28 03:54:01;;;;;;;1.50;1.07;;;-2.30;1.00;;;;;;5091139;28;20188;-81
2024/01/28 03:56:27;;;;;;;3.13;1.30;;;-2.30;1.00;;;;;;5090712;28;20195;-81
2024/01/28 03:58:53;;;;;;;3.87;1.40;;;-2.30;99.90;;;;;;5092237;28;20289;-82
2024/01/28 04:01:28;;;;;;;1.70;1.20;;;-2.30;99.90;;;;;;5091481;28;20171;-81
2024/01/28 04:03:57;;;;;;;3.10;1.43;;;-2.40;99.90;;;;;;5091846;28;20203;-81
2024/01/28 04:06:23;;;;;;;2.43;1.40;;;-2.40;99.90;;;;;;5092234;28;20219;-81
2024/01/28 04:08:49;;;;;;;3.90;1.40;;;-2.30;99.90;;;;;;5090752;28;20181;-81
2024/01/28 04:11:15;;;;;;;3.50;1.47;;;-2.30;99.90;;;;;;5091555;28;20201;-81
2024/01/28 04:13:40;;;;;;;3.93;1.50;;;-2.40;99.90;;;;;;5091769;28;20179;-80
2024/01/28 04:16:06;;;;;;;2.80;1.33;;;-2.40;1.00;;;;;;5092988;28;20205;-81
2024/01/28 04:18:32;;;;;;;2.90;1.37;;;-2.40;1.00;;;;;;5094198;28;20179;-80
2024/01/28 04:20:57;;;;;;;3.23;1.50;;;-2.50;1.00;;;;;;5095086;28;20179;-82
2024/01/28 04:23:23;;;;;;;3.87;1.40;;;-2.60;1.00;;;;;;5094859;28;20181;-81
2024/01/28 04:25:48;;;;;;;3.40;1.23;;;-2.60;1.00;;;;;;5095267;28;20202;-81
2024/01/28 04:28:15;;;;;;;2.33;1.50;;;-2.60;1.00;;;;;;5093908;28;20170;-81
2024/01/28 04:30:40;;;;;;;2.23;1.17;;;-2.60;1.00;;;;;;5094511;28;20202;-81
2024/01/28 04:33:06;;;;;;;2.60;1.50;;;-2.60;1.00;;;;;;5093758;28;20209;-82
2024/01/28 04:35:32;;;;;;;5.57;1.90;;;-2.50;1.00;;;;;;5093964;28;20380;-81
2024/01/28 04:37:57;;;;;;;2.17;1.10;;;-2.50;1.00;;;;;;5093745;28;20202;-81
2024/01/28 04:40:23;;;;;;;6.90;1.57;;;-2.60;1.00;;;;;;5093384;28;20206;-80
2024/01/28 04:42:49;;;;;;;5.03;1.47;;;-2.60;1.00;;;;;;5093816;28;20175;-81
2024/01/28 04:45:15;;;;;;;1.57;1.13;;;-2.60;1.00;;;;;;5093469;28;20181;-81
2024/01/28 04:47:41;;;;;;;3.47;1.30;;;-2.70;1.00;;;;;;5093561;28;20191;-81
2024/01/28 04:50:07;;;;;;;2.50;1.27;;;-2.60;1.00;;;;;;5093762;28;20251;-81
2024/01/28 04:52:32;;;;;;;3.43;1.30;;;-2.60;1.00;;;;;;5094510;28;20190;-83
2024/01/28 04:54:58;;;;;;;2.77;1.20;;;-2.60;1.00;;;;;;5095032;28;20175;-81
2024/01/28 04:57:24;;;;;;;2.83;1.43;;;-2.60;1.00;;;;;;5094693;28;20198;-81
2024/01/28 04:59:49;;;;;;;1.90;1.27;;;-2.60;3.80;;;;;;5093187;28;20205;-81
2024/01/28 05:02:15;;;;;;;2.00;1.20;;;-2.70;31.70;;;;;;5093117;28;20249;-81
2024/01/28 05:04:41;;;;;;;2.23;1.47;;;-2.60;26.50;;;;;;5094930;28;20279;-80
2024/01/28 05:07:07;;;;;;;2.77;1.30;;;-2.50;1.00;;;;;;5095065;28;20685;-81
2024/01/28 05:09:32;;;;;;;3.50;1.30;;;-2.50;1.00;;;;;;5093452;28;20210;-81
2024/01/28 05:11:59;;;;;;;3.77;1.50;;;-2.70;99.90;;;;;;5094227;28;20277;-81
2024/01/28 05:14:25;;;;;;;1.20;1.00;;;-2.60;1.00;;;;;;5094632;28;20182;-81
2024/01/28 05:16:50;;;;;;;4.67;1.40;;;-2.60;99.90;;;;;;5093022;28;20196;-81
2024/01/28 05:19:16;;;;;;;4.27;1.43;;;-2.50;99.90;;;;;;5094619;28;20205;-80
2024/01/28 05:21:41;;;;;;;6.00;1.37;;;-2.60;99.90;;;;;;5093995;28;20190;-80
2024/01/28 05:24:07;;;;;;;3.13;1.40;;;-2.70;99.90;;;;;;5094331;28;20539;-82
2024/01/28 05:26:33;;;;;;;3.33;1.17;;;-2.80;1.00;;;;;;5094080;28;20205;-80
2024/01/28 05:29:05;;;;;;;1.63;1.30;;;-2.70;1.00;;;;;;5091908;28;20178;-81
2024/01/28 05:31:31;;;;;;;2.07;1.17;;;-2.70;1.00;;;;;;5093504;28;20174;-81
2024/01/28 05:33:57;;;;;;;3.67;1.30;;;-2.80;1.00;;;;;;5094269;28;20261;-81
2024/01/28 05:36:23;;;;;;;2.90;1.20;;;-2.80;1.00;;;;;;5093034;28;20284;-81
2024/01/28 05:38:48;;;;;;;4.43;1.43;;;-2.90;1.00;;;;;;5092636;28;20196;-81
2024/01/28 05:41:14;;;;;;;4.00;1.30;;;-2.80;1.00;;;;;;5093469;28;20171;-81
2024/01/28 05:43:39;;;;;;;1.47;1.07;;;-2.80;1.00;;;;;;5093972;28;20175;-80
2024/01/28 05:46:05;;;;;;;1.43;1.20;;;-2.70;1.00;;;;;;5092360;28;20191;-81
2024/01/28 05:48:32;;;;;;;2.53;1.37;;;-2.70;1.00;;;;;;5092720;28;20169;-81
2024/01/28 05:50:58;;;;;;;2.37;1.30;;;-2.60;99.90;;;;;;5092341;28;20198;-81
2024/01/28 05:53:24;;;;;;;3.60;1.30;;;-2.70;1.00;;;;;;5092819;28;20209;-80
2024/01/28 05:55:51;;;;;;;2.13;1.30;;;-2.70;1.00;;;;;;5092365;28;20173;-81
2024/01/28 05:58:17;;;;;;;2.47;1.17;;;-2.80;1.00;;;;;;5092347;28;20170;-80
2024/01/28 06:00:42;;;;;;;3.43;1.30;;;-2.70;99.90;;;;;;5091857;28;20277;-81
2024/01/28 06:03:08;;;;;;;3.17;1.47;;;-2.70;90.40;;;;;;5092237;28;20174;-81
2024/01/28 06:05:33;;;;;;;2.23;1.27;;;-2.80;99.90;;;;;;5092283;28;20180;-80
2024/01/28 06:07:59;;;;;;;2.53;1.30;;;-2.80;1.00;;;;;;5092136;28;20215;-81
2024/01/28 06:10:24;;;;;;;2.13;1.07;;;-2.80;99.90;;;;;;5092874;28;20178;-81
2024/01/28 06:12:50;;;;;;;2.77;1.33;;;-2.90;99.90;;;;;;5092247;28;20259;-81
2024/01/28 06:15:15;;;;;;;4.50;1.20;;;-2.80;99.90;;;;;;5093648;28;20224;-81
2024/01/28 06:17:41;;;;;;;4.33;1.20;;;-2.90;99.90;;;;;;5092147;28;20192;-81
2024/01/28 06:20:08;;;;;;;2.03;1.10;;;-2.80;1.00;;;;;;5092510;28;20210;-79
2024/01/28 06:22:33;;;;;;;2.00;1.10;;;-2.90;99.90;;;;;;5094708;28;20237;-80
2024/01/28 06:25:00;;;;;;;2.13;1.17;;;-2.80;99.90;;;;;;5092359;28;20187;-83
2024/01/28 06:27:26;;;;;;;2.50;1.10;;;-2.80;99.90;;;;;;5091843;28;20677;-81
2024/01/28 06:29:52;;;;;;;3.17;1.03;;;-2.80;1.00;;;;;;5092868;28;20222;-81
2024/01/28 06:32:18;;;;;;;4.17;1.20;;;-2.90;1.00;;;;;;5091453;28;20237;-82
2024/01/28 06:34:44;;;;;;;1.87;1.20;;;-2.80;1.00;;;;;;5092881;28;20182;-81
2024/01/28 06:37:09;;;;;;;2.70;1.20;;;-2.90;1.00;;;;;;5091479;28;20546;-81
2024/01/28 06:39:35;;;;;;;2.60;1.40;;;-2.80;1.00;;;;;;5092641;28;20209;-81
2024/01/28 06:42:01;;;;;;;3.67;1.33;;;-2.80;1.00;;;;;;5093258;28;20180;-82
2024/01/28 06:44:26;;;;;;;8.53;3.50;;;-2.80;1.00;;;;;;5092963;28;20603;-80
2024/01/28 06:46:52;;;;;;;4.40;1.93;;;-1.80;99.90;;;;;;5092215;28;20198;-82
2024/01/28 06:49:17;;;;;;;5.90;1.20;;;-0.50;99.90;;;;;;5092999;28;20539;-84
2024/01/28 06:51:43;;;;;;;3.07;1.10;;;0.40;99.90;;;;;;5092532;28;20188;-82
2024/01/28 06:54:12;;;;;;;2.27;1.27;;;0.60;13.30;;;;;;5093099;28;20188;-81
2024/01/28 06:56:37;;;;;;;2.37;1.03;;;0.00;1.00;;;;;;5092042;28;20192;-83
2024/01/28 06:59:03;;;;;;;1.53;0.97;;;-0.70;1.00;;;;;;5093241;28;20202;-81
2024/01/28 07:01:29;;;;;;;1.60;1.10;;;-1.30;1.00;;;;;;5093420;28;20197;-82
2024/01/28 07:03:54;;;;;;;2.03;1.00;;;-1.80;99.90;;;;;;5092791;28;20176;-82
2024/01/28 07:06:20;;;;;;;5.40;2.53;;;-2.10;99.90;;;;;;5093319;28;20207;-81
2024/01/28 07:08:46;;;;;;;9.90;3.90;;;-2.10;99.90;;;;;;5092864;28;20168;-81
2024/01/28 07:11:11;;;;;;;7.83;4.60;;;-2.30;1.00;;;;;;5091880;28;20202;-81
2024/01/28 07:13:37;;;;;;;5.30;2.90;;;-2.50;99.90;;;;;;5090889;28;20237;-82
2024/01/28 07:16:03;;;;;;;2.20;1.20;;;-2.70;1.00;;;;;;5091059;28;20178;-82
2024/01/28 07:18:29;;;;;;;2.53;1.20;;;-2.80;1.00;;;;;;5092126;28;20651;-82
2024/01/28 07:20:54;;;;;;;1.27;1.10;;;-2.70;1.00;;;;;;5090519;28;20186;-82
2024/01/28 07:23:20;;;;;;;2.80;1.60;;;-2.70;1.00;;;;;;5091510;28;20179;-82
2024/01/28 07:25:46;;;;;;;4.73;1.37;;;-2.80;1.00;;;;;;5092178;28;20185;-81
2024/01/28 07:28:12;;;;;;;2.57;1.30;;;-2.80;1.00;;;;;;5092039;28;20214;-83
2024/01/28 07:30:37;;;;;;;2.53;1.40;;;-2.70;1.00;;;;;;5092131;28;20206;-82
2024/01/28 07:33:07;;;;;;;8.83;3.20;;;-2.80;1.00;;;;;;5091233;28;20182;-83
2024/01/28 07:35:33;;;;;;;1999.90;737.80;;;-2.80;1.00;;;;;;5092732;28;20171;-83
2024/01/28 07:37:59;;;;;;;1999.90;750.57;;;2.10;99.90;;;;;;5093205;28;20204;-83
2024/01/28 07:40:24;;;;;;;1258.70;310.63;;;5.90;99.90;;;;;;5092686;28;20202;-82
2024/01/28 07:42:50;;;;;;;14.70;5.20;;;6.50;1.00;;;;;;5092671;28;20180;-82
2024/01/28 07:45:16;;;;;;;4.40;1.90;;;5.60;1.00;;;;;;5090531;28;20180;-83
2024/01/28 07:47:41;;;;;;;4.27;1.93;;;3.80;1.00;;;;;;5092685;28;20645;-83
2024/01/28 07:50:07;;;;;;;4.13;2.40;;;2.00;99.90;;;;;;5092654;28;20176;-83
2024/01/28 07:52:33;;;;;;;3.57;1.80;;;0.70;99.90;;;;;;5095703;28;20204;-81
2024/01/28 07:54:58;;;;;;;4.63;2.13;;;-0.10;99.90;;;;;;5096549;28;20177;-82
2024/01/28 07:57:24;;;;;;;4.70;1.70;;;-0.80;1.00;;;;;;5095124;28;20291;-82
2024/01/28 07:59:49;;;;;;;3.70;2.13;;;-1.20;1.00;;;;;;5095983;28;20197;-80
2024/01/28 08:02:15;;;;;;;2.70;2.00;;;-1.50;1.00;;;;;;5096077;28;20171;-81
2024/01/28 08:04:41;;;;;;;6.07;2.23;;;-1.80;99.90;;;;;;5095072;28;20172;-83
2024/01/28 08:07:07;;;;;;;5.87;2.47;;;-1.90;99.90;;;;;;5096183;28;20207;-82
2024/01/28 08:09:33;;;;;;;4.63;2.47;;;-2.00;1.00;;;;;;5095957;28;20633;-81
2024/01/28 08:11:59;;;;;;;6.23;3.53;;;-2.10;1.00;;;;;;5094803;28;20172;-81
2024/01/28 08:14:27;;;;;;;4.93;2.90;;;-2.30;1.00;;;;;;5094946;28;20176;-81
2024/01/28 08:16:54;;;;;;;7.57;2.67;;;-2.30;1.00;;;;;;5095728;28;20703;-82
2024/01/28 08:19:20;;;;;;;5.40;2.30;;;-2.20;4.40;;;;;;5096050;28;20306;-82
2024/01/28 08:21:45;;;;;;;4.43;2.70;;;-2.20;3.00;;;;;;5095372;28;20254;-83
2024/01/28 08:24:11;;;;;;;6.17;3.13;;;-2.20;31.10;;;;;;5094453;28;20195;-83
2024/01/28 08:26:38;;;;;;;8.10;4.20;;;-2.10;8.60;;;;;;5095791;28;20195;-83
2024/01/28 08:29:03;;;;;;;7.27;4.20;;;-2.00;9.30;;;;;;5094576;28;20313;-82
2024/01/28 08:31:29;;;;;;;13.17;8.20;;;-2.00;86.00;;;;;;5095227;28;20232;-82
2024/01/28 08:33:54;;;;;;;9.70;5.70;;;-2.00;99.90;;;;;;5094360;28;20695;-82
2024/01/28 08:36:20;;;;;;;35.30;21.57;;;-1.90;99.90;;;;;;5095558;28;20890;-82
2024/01/28 08:38:46;;;;;;;46.53;27.47;;;-1.90;99.90;;;;;;5095487;28;20183;-82
2024/01/28 08:41:11;;;;;;;37.90;22.50;;;-1.80;99.90;;;;;;5095002;28;20180;-81
2024/01/28 08:43:37;;;;;;;23.40;14.53;;;-1.60;99.90;;;;;;5094000;28;20185;-82
2024/01/28 08:46:03;;;;;;;12.57;8.20;;;-1.50;99.90;;;;;;5095007;28;20288;-82
2024/01/28 08:48:29;;;;;;;11.37;6.70;;;-1.40;99.90;;;;;;5095193;28;20171;-82
2024/01/28 08:50:55;;;;;;;9.20;6.23;;;-1.30;99.90;;;;;;5094700;28;20262;-82
2024/01/28 08:53:21;;;;;;;11.50;7.27;;;-1.10;99.90;;;;;;5093982;28;20203;-82
2024/01/28 08:55:47;;;;;;;26.80;16.07;;;-1.00;99.90;;;;;;5093780;28;20214;-81
2024/01/28 08:58:12;;;;;;;9.47;5.70;;;-0.90;99.90;;;;;;5095370;28;20179;-82
2024/01/28 09:00:41;;;;;;;4.57;3.40;;;-0.70;99.90;;;;;;5094372;28;20608;-82
2024/01/28 09:03:06;;;;;;;7.00;3.43;;;-0.50;99.90;;;;;;5095117;28;20243;-82
2024/01/28 09:05:32;;;;;;;6.23;2.77;;;-0.40;99.90;;;;;;5093572;28;20547;-82
2024/01/28 09:07:57;;;;;;;5.47;2.67;;;-0.30;99.90;;;;;;5094865;28;20211;-82
2024/01/28 09:10:23;;;;;;;6.87;3.67;;;-0.20;99.90;;;;;;5093368;28;20180;-82
2024/01/28 09:12:49;;;;;;;6.10;3.00;;;-0.10;99.90;;;;;;5094998;28;20176;-83
2024/01/28 09:15:14;;;;;;;4.37;3.00;;;0.10;99.90;;;;;;5093530;28;20176;-82
2024/01/28 09:17:41;;;;;;;7.17;3.07;;;0.30;99.90;;;;;;5093636;28;20203;-82
2024/01/28 09:20:07;;;;;;;7.30;3.63;;;0.40;97.50;;;;;;5093111;28;20210;-82
2024/01/28 09:22:36;;;;;;;6.27;2.80;;;0.40;79.10;;;;;;5093289;28;20249;-82
2024/01/28 09:25:05;;;;;;;7.73;2.90;;;0.60;99.90;;;;;;5093321;28;20657;-82
2024/01/28 09:27:31;;;;;;;4.97;2.50;;;0.70;80.00;;;;;;5094395;28;20672;-82
2024/01/28 09:29:57;;;;;;;5.13;2.93;;;0.80;1.00;;;;;;5093089;28;20205;-81
2024/01/28 09:32:25;;;;;;;4.33;2.67;;;0.90;1.00;;;;;;5094008;28;20211;-79
2024/01/28 09:34:51;;;;;;;5.90;2.70;;;0.90;1.00;;;;;;5093392;28;20183;-82
2024/01/28 09:37:18;;;;;;;8.60;3.10;;;1.00;1.00;;;;;;5094534;28;20200;-82
2024/01/28 09:39:44;;;;;;;5.43;3.00;;;1.00;1.00;;;;;;5093810;28;20727;-82
2024/01/28 09:42:31;;;;;;;7.20;2.63;;;1.10;1.00;;;;;;5093065;28;20173;-82
2024/01/28 09:44:58;;;;;;;6.97;3.30;;;1.20;1.00;;;;;;5093220;28;20157;-83
2024/01/28 09:47:25;;;;;;;4.67;2.67;;;1.40;1.00;;;;;;5092712;28;20199;-82
2024/01/28 09:49:51;;;;;;;5.20;3.00;;;1.60;1.00;;;;;;5093849;28;20209;-82
2024/01/28 09:52:17;;;;;;;7.20;4.43;;;1.80;1.00;;;;;;5092872;28;20180;-82
2024/01/28 09:54:46;;;;;;;6.37;3.50;;;2.00;1.00;;;;;;5094314;28;20182;-82
2024/01/28 09:57:12;;;;;;;7.27;3.27;;;2.10;1.00;;;;;;5094546;28;20206;-83
2024/01/28 09:59:38;;;;;;;5.13;2.90;;;2.30;99.90;;;;;;5094444;28;20668;-83
2024/01/28 10:02:05;;;;;;;5.17;2.97;;;2.50;1.00;;;;;;5092690;28;20183;-83
2024/01/28 10:04:31;;;;;;;5.83;3.00;;;2.60;1.00;;;;;;5093984;28;20180;-83
2024/01/28 10:06:59;;;;;;;4.87;3.10;;;2.70;1.00;;;;;;5094139;28;20213;-83
2024/01/28 10:09:25;;;;;;;7.13;3.10;;;2.90;1.00;;;;;;5093872;28;20178;-82
2024/01/28 10:11:51;;;;;;;5.90;3.67;;;3.10;1.00;;;;;;5093422;28;20217;-83
2024/01/28 10:14:17;;;;;;;7.33;3.20;;;3.30;1.00;;;;;;5091984;28;20207;-83
2024/01/28 10:16:47;;;;;;;4.97;2.80;;;3.50;1.00;;;;;;5092908;28;20206;-83
2024/01/28 10:19:13;;;;;;;4.50;2.80;;;3.60;1.00;;;;;;5094193;28;20200;-83
2024/01/28 10:21:38;;;;;;;4.97;2.80;;;3.70;1.00;;;;;;5093355;28;20612;-83
2024/01/28 10:24:04;;;;;;;3.43;2.23;;;4.00;99.90;;;;;;5092690;28;20202;-83
2024/01/28 10:26:30;;;;;;;6.50;2.47;;;4.00;1.00;;;;;;5092450;28;20192;-83
2024/01/28 10:28:56;;;;;;;4.00;2.70;;;4.10;1.00;;;;;;5093889;28;20237;-82
2024/01/28 10:31:24;;;;;;;6.37;3.17;;;4.10;99.90;;;;;;5093277;28;20250;-83
2024/01/28 10:33:50;;;;;;;5.33;3.17;;;4.00;1.00;;;;;;5093700;28;20176;-83
2024/01/28 10:36:17;;;;;;;6.07;2.77;;;4.10;1.00;;;;;;5092503;28;20242;-83
2024/01/28 10:38:46;;;;;;;4.73;2.80;;;4.10;99.90;;;;;;5092370;28;20183;-83
2024/01/28 10:41:17;;;;;;;6.60;3.20;;;4.30;99.90;;;;;;5093155;28;20324;-83
2024/01/28 10:43:57;;;;;;;7.37;3.23;;;4.50;55.70;;;;;;5092243;28;20165;-83
2024/01/28 10:46:33;;;;;;;6.07;3.27;;;4.60;99.90;;;;;;5092508;28;20188;-82
2024/01/28 10:49:04;;;;;;;5.37;2.97;;;4.70;1.00;;;;;;5092190;28;20176;-82
2024/01/28 10:51:32;;;;;;;4.23;3.27;;;4.80;1.00;;;;;;5091554;28;20178;-82
2024/01/28 10:54:00;;;;;;;5.83;3.30;;;4.90;1.00;;;;;;5091900;28;20200;-81
2024/01/28 10:56:27;;;;;;;4.90;3.03;;;5.00;1.00;;;;;;5091521;28;20772;-82
2024/01/28 10:58:53;;;;;;;5.20;2.73;;;5.10;99.90;;;;;;5092963;28;20169;-80
2024/01/28 11:01:19;;;;;;;6.50;2.77;;;5.40;99.90;;;;;;5092685;28;20231;-81
2024/01/28 11:03:45;;;;;;;4.13;2.50;;;5.60;99.90;;;;;;5092947;28;20173;-80
2024/01/28 11:06:16;;;;;;;4.83;2.67;;;6.00;1.00;;;;;;5093010;28;20585;-82
2024/01/28 11:08:42;;;;;;;6.47;2.97;;;6.40;99.90;;;;;;5141763;22;20227;-80
2024/01/28 11:11:07;;;;;;;5.77;3.20;;;6.80;1.00;;;;;;5093340;28;20220;-81
2024/01/28 11:13:33;;;;;;;5.97;2.87;;;7.20;1.00;;;;;;5093476;28;20172;-81
2024/01/28 11:15:59;;;;;;;6.50;3.03;;;7.70;99.90;;;;;;5093526;28;20164;-80
2024/01/28 11:18:31;;;;;;;3.77;2.80;;;7.90;99.90;;;;;;5108886;28;20185;-81
2024/01/28 11:20:56;;;;;;;5.97;2.80;;;8.10;1.00;;;;;;5091222;28;20204;-81
2024/01/28 11:23:22;;;;;;;4.60;2.73;;;8.40;1.00;;;;;;5092662;28;20168;-83
2024/01/28 11:25:51;;;;;;;5.07;3.23;;;8.50;50.60;;;;;;5109103;28;20177;-83
2024/01/28 11:28:18;;;;;;;6.10;3.20;;;8.50;1.00;;;;;;5113879;28;20200;-81
2024/01/28 11:30:46;;;;;;;74.67;32.17;;;8.40;42.10;;;;;;5095950;28;20315;-87
2024/01/28 11:33:16;;;;;;;24.53;11.83;;;9.20;99.90;;;;;;5094990;28;20214;-84
2024/01/28 11:35:45;;;;;;;16.27;8.53;;;10.90;1.00;;;;;;5096107;28;20183;-84
2024/01/28 11:38:18;;;;;;;7.60;4.87;;;13.00;1.00;;;;;;5112951;28;20241;-85
2024/01/28 11:40:48;;;;;;;8.70;5.13;;;12.60;99.90;;;;;;5095774;28;20200;-85
2024/01/28 11:43:13;;;;;;;6.13;3.63;;;12.00;99.90;;;;;;5096160;28;20176;-83
2024/01/28 11:45:39;;;;;;;3.83;3.30;;;13.10;99.90;;;;;;5096904;28;20171;-83
2024/01/28 11:48:09;;;;;;;6.07;3.40;;;12.10;1.00;;;;;;5095223;28;20195;-83
2024/01/28 11:50:35;;;;;;;4.20;3.27;;;11.40;1.00;;;;;;5096151;28;20176;-83
2024/01/28 11:53:04;;;;;;;4.53;3.10;;;11.10;16.90;;;;;;5096349;28;20199;-83
2024/01/28 11:55:30;;;;;;;4.70;3.30;;;10.90;40.90;;;;;;5096682;28;20172;-84
2024/01/28 11:57:56;;;;;;;4.83;3.23;;;11.00;39.60;;;;;;5096652;28;20196;-83
2024/01/28 12:00:25;;;;;;;7.83;3.90;;;10.90;1.00;;;;;;5095932;28;20200;-83
2024/01/28 12:02:50;;;;;;;6.33;3.67;;;11.10;68.00;;;;;;5112211;28;20627;-84
2024/01/28 12:05:16;;;;;;;4.10;3.20;;;11.10;1.00;;;;;;5111988;28;20228;-83
2024/01/28 12:07:42;;;;;;;5.90;3.70;;;11.20;1.00;;;;;;5096234;28;20242;-83
2024/01/28 12:10:12;;;;;;;5.03;3.53;;;11.30;1.00;;;;;;5095968;28;20217;-83
2024/01/28 12:12:40;;;;;;;6.30;4.10;;;11.10;1.00;;;;;;5097663;28;20177;-83
2024/01/28 12:15:07;;;;;;;5.03;3.70;;;11.10;1.00;;;;;;5112394;28;20176;-83
2024/01/28 12:17:40;;;;;;;5.10;3.80;;;11.40;1.00;;;;;;5096146;28;20241;-85
2024/01/28 12:20:07;;;;;;;5.43;3.73;;;11.60;1.00;;;;;;5095202;28;20561;-83
2024/01/28 12:22:39;;;;;;;5.40;4.00;;;11.80;1.00;;;;;;5095880;28;20171;-83
2024/01/28 12:25:12;;;;;;;5.77;4.03;;;11.80;1.00;;;;;;5096248;28;20209;-84
2024/01/28 12:27:39;;;;;;;5.97;4.07;;;11.80;1.00;;;;;;5100544;28;20184;-83
2024/01/28 12:30:09;;;;;;;5.10;3.73;;;12.10;1.00;;;;;;5099375;28;20173;-83
2024/01/28 12:32:37;;;;;;;7.30;4.33;;;12.30;1.00;;;;;;5094256;28;20222;-83
2024/01/28 12:35:07;;;;;;;5.40;3.63;;;12.50;1.00;;;;;;5094923;28;20229;-83
2024/01/28 12:37:34;;;;;;;5.83;3.60;;;12.60;1.00;;;;;;5110776;28;20603;-83
2024/01/28 12:40:00;;;;;;;5.93;3.77;;;12.60;1.00;;;;;;5095481;28;20191;-83
2024/01/28 12:42:26;;;;;;;5.83;3.60;;;12.90;1.00;;;;;;5094961;28;20183;-84
2024/01/28 12:44:51;;;;;;;4.83;4.00;;;12.80;1.00;;;;;;5111423;28;20172;-84
2024/01/28 12:47:17;;;;;;;5.57;4.10;;;12.90;1.00;;;;;;5095646;28;20249;-84
2024/01/28 12:49:43;;;;;;;5.43;3.90;;;13.20;1.00;;;;;;5095580;28;20202;-84